Time;durP1;ratioP1;P1;durP2;ratioP2;P2;SDS_P1;SDS_P2;PMS_P1;PMS_P2;Temp;Humidity;BMP_temperature;BMP_pressure;BME280_temperature;BME280_humidity;BME280_pressure;Samples;Min_cycle;Max_cycle;Signal;HPM_P1;HPM_P2
2021/07/30 00:02:19;;;;;;;9.98;7.38;;;;;;;30.72;36.86;99097.84;5031524;28;20029;-75
2021/07/30 00:04:45;;;;;;;11.57;7.40;;;;;;;30.62;36.69;99081.81;5031508;28;20479;-76
2021/07/30 00:07:10;;;;;;;12.70;7.07;;;;;;;30.52;36.60;99065.78;5031632;28;20037;-77
2021/07/30 00:09:36;;;;;;;18.42;8.02;;;;;;;30.79;36.24;99100.88;5031574;28;20025;-75
2021/07/30 00:12:01;;;;;;;14.50;8.40;;;;;;;30.52;35.73;99066.56;5031630;28;20030;-76
2021/07/30 00:14:26;;;;;;;17.20;8.02;;;;;;;30.48;35.97;99086.63;5031309;28;20033;-76
2021/07/30 00:16:52;;;;;;;16.88;7.88;;;;;;;30.12;35.62;99044.09;5031506;28;20112;-75
2021/07/30 00:19:18;;;;;;;13.65;7.65;;;;;;;30.35;35.71;99091.88;5031306;28;20027;-75
2021/07/30 00:21:43;;;;;;;13.60;7.75;;;;;;;30.24;35.96;99084.31;5031527;28;20117;-75
2021/07/30 00:24:08;;;;;;;13.68;8.45;;;;;;;30.16;36.21;99088.66;5031562;28;20108;-75
2021/07/30 00:26:34;;;;;;;15.63;7.57;;;;;;;30.18;36.12;99096.50;5031513;28;20077;-75
2021/07/30 00:28:59;;;;;;;15.23;8.13;;;;;;;29.72;36.36;99041.41;5031182;28;20036;-74
2021/07/30 00:31:25;;;;;;;13.20;7.65;;;;;;;30.04;36.01;99086.53;5031326;28;20498;-74
2021/07/30 00:33:50;;;;;;;16.85;9.10;;;;;;;30.11;36.06;99101.59;5031571;28;20107;-76
2021/07/30 00:36:15;;;;;;;18.23;8.88;;;;;;;29.71;36.22;99042.53;5031356;28;20392;-75
2021/07/30 00:38:41;;;;;;;13.27;8.77;;;;;;;30.02;36.50;99099.66;5031134;28;20071;-75
2021/07/30 00:41:06;;;;;;;16.58;8.25;;;;;;;29.70;36.42;99045.56;5031164;28;20120;-75
2021/07/30 00:43:32;;;;;;;14.10;8.60;;;;;;;29.60;36.63;99041.22;5031214;28;20116;-76
2021/07/30 00:45:59;;;;;;;14.18;8.13;;;;;;;29.67;36.58;99057.09;5029909;28;20065;-75
2021/07/30 00:48:25;;;;;;;11.15;7.63;;;;;;;29.91;36.50;99097.53;5031129;28;20026;-75
2021/07/30 00:50:51;;;;;;;16.73;9.02;;;;;;;29.94;36.38;99094.97;5031319;28;20049;-75
2021/07/30 00:53:17;;;;;;;16.42;9.25;;;;;;;29.92;36.58;99102.66;5031122;28;20034;-74
2021/07/30 00:55:44;;;;;;;15.00;7.93;;;;;;;29.83;36.84;99095.59;5031418;28;20029;-75
2021/07/30 00:58:10;;;;;;;14.45;8.13;;;;;;;29.45;36.63;99043.56;5030922;28;20474;-75
2021/07/30 01:00:36;;;;;;;14.48;7.47;;;;;;;29.86;37.00;99105.84;5031055;28;20053;-75
2021/07/30 01:03:03;;;;;;;14.23;8.80;;;;;;;29.84;36.74;99105.34;5031040;28;20513;-75
2021/07/30 01:05:30;;;;;;;19.15;9.05;;;;;;;29.81;36.55;99106.00;5034066;28;20492;-75
2021/07/30 01:07:57;;;;;;;15.73;8.52;;;;;;;29.46;36.62;99054.16;5034959;28;20065;-74
2021/07/30 01:10:22;;;;;;;14.63;8.30;;;;;;;29.60;36.87;99087.47;5035398;28;20029;-75
2021/07/30 01:12:48;;;;;;;15.30;8.07;;;;;;;29.72;36.91;99106.72;5035018;28;20082;-75
2021/07/30 01:15:13;;;;;;;13.68;8.65;;;;;;;29.67;36.90;99097.91;5035028;28;20022;-74
2021/07/30 01:17:39;;;;;;;14.68;8.48;;;;;;;29.44;36.90;99061.00;5034814;28;20029;-75
2021/07/30 01:20:05;;;;;;;15.70;8.43;;;;;;;29.65;37.38;99095.50;5034674;28;20022;-74
2021/07/30 01:22:34;;;;;;;17.17;8.05;;;;;;;29.62;37.13;99103.50;5034591;28;20041;-75
2021/07/30 01:24:59;;;;;;;19.13;8.82;;;;;;;29.60;37.60;99119.31;5034380;28;20112;-81
2021/07/30 01:27:24;;;;;;;16.75;8.07;;;;;;;29.62;37.47;99104.28;5034631;28;20029;-82
2021/07/30 01:29:51;;;;;;;16.30;8.95;;;;;;;29.13;37.50;99036.53;5034724;28;20104;-81
2021/07/30 01:32:17;;;;;;;16.40;8.45;;;;;;;29.53;37.12;99097.22;5034756;28;20029;-81
2021/07/30 01:34:42;;;;;;;15.50;9.18;;;;;;;29.59;37.15;99101.41;5034687;28;20517;-81
2021/07/30 01:37:09;;;;;;;16.20;8.68;;;;;;;29.18;37.56;99039.13;5034871;28;20036;-80
2021/07/30 01:39:35;;;;;;;17.08;8.30;;;;;;;29.39;37.48;99075.53;5033748;28;20028;-81
2021/07/30 01:42:00;;;;;;;15.18;7.97;;;;;;;29.03;38.09;99032.16;5034446;28;20021;-80
2021/07/30 01:44:26;;;;;;;12.80;7.53;;;;;;;29.14;38.03;99055.25;5034284;28;20036;-81
2021/07/30 01:46:51;;;;;;;12.60;7.40;;;;;;;29.41;38.02;99103.22;5034419;28;20025;-82
2021/07/30 01:49:16;;;;;;;16.52;7.30;;;;;;;29.15;38.01;99058.78;5034222;28;20546;-83
2021/07/30 01:51:42;;;;;;;13.38;7.30;;;;;;;28.79;38.27;99003.38;5033125;28;20036;-80
2021/07/30 01:54:07;;;;;;;15.52;7.32;;;;;;;29.02;38.29;99055.03;5034239;28;20022;-80
2021/07/30 01:56:33;;;;;;;10.40;6.88;;;;;;;29.21;38.73;99085.53;5034193;28;20025;-82
2021/07/30 01:58:58;;;;;;;10.77;7.15;;;;;;;28.96;38.39;99050.81;5034135;28;20059;-81
2021/07/30 02:01:24;;;;;;;16.50;7.38;;;;;;;28.56;38.84;98993.63;5034126;28;20034;-82
2021/07/30 02:03:49;;;;;;;13.88;7.97;;;;;;;29.20;38.79;99093.97;5034127;28;20075;-82
2021/07/30 02:06:15;;;;;;;14.75;7.68;;;;;;;29.13;39.25;99085.47;5032939;28;20670;-82
2021/07/30 02:08:43;;;;;;;16.33;7.32;;;;;;;28.95;39.04;99081.81;5033902;28;20101;-81
2021/07/30 02:11:09;;;;;;;13.55;7.55;;;;;;;28.86;39.18;99070.88;5034121;28;20033;-81
2021/07/30 02:16:19;;;;;;;16.23;7.95;;;;;;;28.84;39.27;99075.03;5033893;28;20028;-82
2021/07/30 02:18:45;;;;;;;15.07;7.55;;;;;;;28.43;39.12;99019.75;5033894;28;20112;-82
2021/07/30 02:21:10;;;;;;;17.95;8.45;;;;;;;28.90;39.24;99098.25;5033948;28;20025;-82
2021/07/30 02:23:35;;;;;;;15.13;7.97;;;;;;;28.57;39.12;99041.41;5033838;28;20029;-75
2021/07/30 02:26:01;;;;;;;16.75;8.82;;;;;;;28.81;39.12;99087.28;5033401;28;20032;-75
2021/07/30 02:28:27;;;;;;;22.55;9.52;;;;;;;28.62;38.93;99063.03;5033372;28;20079;-75
2021/07/30 02:30:52;;;;;;;16.45;8.93;;;;;;;28.61;38.49;99055.19;5033349;28;20083;-74
2021/07/30 02:33:17;;;;;;;16.70;9.13;;;;;;;28.55;38.68;99065.38;5033248;28;20018;-75
2021/07/30 02:35:43;;;;;;;15.50;8.15;;;;;;;28.65;38.54;99097.72;5033339;28;20029;-75
2021/07/30 02:38:08;;;;;;;14.10;8.18;;;;;;;28.64;38.74;99108.91;5033346;28;20027;-74
2021/07/30 02:40:34;;;;;;;14.60;8.45;;;;;;;28.58;38.98;99100.06;5033358;28;20029;-75
2021/07/30 02:43:00;;;;;;;18.05;9.30;;;;;;;28.53;39.04;99102.09;5033091;28;20028;-75
2021/07/30 02:45:26;;;;;;;18.70;9.05;;;;;;;28.58;39.19;99105.50;5033175;28;20425;-74
2021/07/30 02:47:51;;;;;;;13.90;8.48;;;;;;;28.58;38.96;99107.41;5033050;28;20029;-75
2021/07/30 02:50:17;;;;;;;16.92;8.73;;;;;;;28.50;39.25;99092.66;5032918;28;20553;-75
2021/07/30 02:52:42;;;;;;;16.88;8.13;;;;;;;28.34;38.99;99070.47;5032838;28;20025;-75
2021/07/30 02:55:08;;;;;;;19.80;10.07;;;;;;;28.35;39.03;99076.72;5031559;28;20036;-75
2021/07/30 02:57:34;;;;;;;18.02;9.52;;;;;;;28.45;39.29;99090.84;5032874;28;20016;-75
2021/07/30 02:59:59;;;;;;;18.02;9.23;;;;;;;28.02;38.90;99046.16;5032932;28;20432;-74
2021/07/30 03:02:24;;;;;;;15.70;8.95;;;;;;;28.43;39.20;99109.38;5031616;28;20021;-74
2021/07/30 03:04:50;;;;;;;16.92;9.07;;;;;;;28.06;39.02;99066.16;5033084;28;20026;-74
2021/07/30 03:07:15;;;;;;;16.92;12.02;;;;;;;27.92;39.24;99059.94;5032725;28;20025;-73
2021/07/30 03:09:41;;;;;;;14.65;9.00;;;;;;;28.29;39.18;99116.75;5032676;28;20060;-73
2021/07/30 03:12:06;;;;;;;16.83;8.90;;;;;;;28.01;39.13;99087.97;5032795;28;20075;-73
2021/07/30 03:14:32;;;;;;;16.05;9.55;;;;;;;27.92;39.15;99092.50;5032514;28;20426;-74
2021/07/30 03:16:57;;;;;;;15.88;8.90;;;;;;;27.84;39.13;99091.31;5032624;28;20421;-75
2021/07/30 03:19:23;;;;;;;15.93;8.80;;;;;;;27.68;38.95;99081.88;5032725;28;20548;-73
2021/07/30 03:21:48;;;;;;;18.40;9.38;;;;;;;27.40;39.22;99051.19;5032548;28;20033;-75
2021/07/30 03:24:13;;;;;;;18.98;9.45;;;;;;;27.84;39.22;99127.38;5032571;28;20533;-76
2021/07/30 03:26:39;;;;;;;16.85;9.60;;;;;;;27.45;39.24;99061.94;5031827;28;20079;-76
2021/07/30 03:29:05;;;;;;;15.43;9.23;;;;;;;27.41;39.14;99058.22;5032482;28;20037;-75
2021/07/30 03:31:30;;;;;;;17.50;9.32;;;;;;;27.79;39.17;99124.78;5031217;28;20030;-75
2021/07/30 03:33:56;;;;;;;16.67;9.30;;;;;;;27.72;39.22;99113.53;5032332;28;20418;-76
2021/07/30 03:36:21;;;;;;;16.83;9.55;;;;;;;27.31;39.32;99053.78;5032341;28;20104;-75
2021/07/30 03:38:47;;;;;;;15.10;9.13;;;;;;;27.70;39.27;99117.66;5031993;28;20467;-74
2021/07/30 03:41:12;;;;;;;19.83;10.35;;;;;;;27.77;39.30;99126.19;5032138;28;20052;-74
2021/07/30 03:43:38;;;;;;;18.75;9.38;;;;;;;27.84;39.01;99138.25;5032158;28;20467;-74
2021/07/30 03:46:03;;;;;;;11.98;8.45;;;;;;;27.76;39.03;99130.00;5031953;28;20554;-75
2021/07/30 03:48:28;;;;;;;18.67;9.30;;;;;;;27.78;38.92;99125.88;5031914;28;20032;-75
2021/07/30 03:50:54;;;;;;;21.33;9.45;;;;;;;27.63;38.95;99103.69;5031934;28;20483;-76
2021/07/30 03:53:19;;;;;;;26.75;10.40;;;;;;;27.44;38.70;99063.03;5031993;28;20044;-76
2021/07/30 03:55:45;;;;;;;21.52;10.35;;;;;;;27.75;38.69;99123.78;5031799;28;20104;-75
2021/07/30 03:58:10;;;;;;;18.48;9.65;;;;;;;27.40;39.01;99081.81;5031804;28;20482;-75
2021/07/30 04:00:37;;;;;;;19.50;10.02;;;;;;;27.56;38.88;99109.47;5031794;28;20497;-76
2021/07/30 04:03:03;;;;;;;20.00;10.45;;;;;;;27.73;38.83;99125.97;5031863;28;20468;-75
2021/07/30 04:05:28;;;;;;;17.45;9.48;;;;;;;27.68;38.88;99122.56;5031650;28;20091;-75
2021/07/30 04:07:54;;;;;;;16.15;9.63;;;;;;;27.35;38.98;99062.13;5030273;28;20025;-76
2021/07/30 04:10:19;;;;;;;18.90;10.32;;;;;;;27.79;38.83;99123.97;5031747;28;20036;-73
2021/07/30 04:12:44;;;;;;;18.90;9.75;;;;;;;27.84;38.84;99123.88;5031543;28;20109;-73
2021/07/30 04:15:10;;;;;;;15.82;9.52;;;;;;;27.70;39.26;99099.47;5031646;28;20043;-74
2021/07/30 04:17:35;;;;;;;18.40;9.93;;;;;;;27.46;39.18;99067.06;5031524;28;20528;-76
2021/07/30 04:20:01;;;;;;;21.48;10.18;;;;;;;27.80;39.08;99112.81;5031466;28;20040;-77
2021/07/30 04:22:26;;;;;;;24.85;10.50;;;;;;;27.68;39.02;99084.59;5031494;28;20022;-77
2021/07/30 04:24:52;;;;;;;22.27;10.25;;;;;;;27.72;38.77;99080.16;5030899;28;20112;-75
2021/07/30 04:27:17;;;;;;;22.10;10.45;;;;;;;27.51;38.87;99036.34;5029610;28;20031;-75
2021/07/30 04:29:43;;;;;;;22.98;10.73;;;;;;;28.10;38.82;99122.25;5031480;28;20025;-75
2021/07/30 04:32:10;;;;;;;19.63;10.35;;;;;;;28.13;38.88;99116.22;5031187;28;20113;-74
2021/07/30 04:34:37;;;;;;;22.55;11.55;;;;;;;28.15;38.95;99118.63;5031196;28;20027;-75
2021/07/30 04:37:03;;;;;;;31.08;12.35;;;;;;;28.11;38.96;99113.00;5031105;28;20108;-76
2021/07/30 04:39:28;;;;;;;26.27;10.48;;;;;;;28.15;39.18;99110.47;5032779;28;20100;-75
2021/07/30 04:41:53;;;;;;;24.23;11.00;;;;;;;28.21;39.29;99125.53;5035490;28;20025;-75
2021/07/30 04:44:20;;;;;;;25.95;11.68;;;;;;;28.02;39.23;99084.97;5035281;28;20437;-77
2021/07/30 04:46:46;;;;;;;27.58;12.15;;;;;;;27.94;39.33;99090.31;5035240;28;20033;-76
2021/07/30 04:49:11;;;;;;;25.63;11.75;;;;;;;28.11;39.56;99123.06;5035088;28;20163;-75
2021/07/30 04:51:36;;;;;;;23.23;12.75;;;;;;;27.78;39.50;99066.19;5035138;28;20041;-73
2021/07/30 04:54:02;;;;;;;20.85;12.40;;;;;;;27.77;39.24;99063.78;5034011;28;20537;-77
2021/07/30 04:56:27;;;;;;;24.98;13.20;;;;;;;27.78;39.34;99060.78;5035211;28;20041;-75
2021/07/30 04:58:52;;;;;;;21.50;12.88;;;;;;;27.95;39.42;99081.84;5035107;28;20099;-75
2021/07/30 05:01:18;;;;;;;25.00;12.95;;;;;;;28.25;39.14;99118.47;5034948;28;20030;-75
2021/07/30 05:03:43;;;;;;;21.63;11.63;;;;;;;28.21;39.10;99105.75;5034975;28;20418;-76
2021/07/30 05:06:17;;;;;;;20.75;11.55;;;;;;;28.37;39.33;99129.59;5033675;28;20033;-75
2021/07/30 05:08:43;;;;;;;21.05;11.25;;;;;;;28.44;39.25;99127.28;5034980;28;20178;-76
2021/07/30 05:11:11;;;;;;;21.00;11.20;;;;;;;28.23;38.98;99084.53;5035013;28;20104;-75
2021/07/30 05:13:40;;;;;;;24.42;12.15;;;;;;;28.57;38.96;99133.78;5034553;28;20032;-73
2021/07/30 05:16:11;;;;;;;22.33;10.60;;;;;;;28.63;38.83;99137.19;5034653;28;20474;-76
2021/07/30 05:18:37;;;;;;;23.08;12.27;;;;;;;28.61;38.84;99139.41;5034505;28;20029;-76
2021/07/30 05:21:14;;;;;;;23.85;11.90;;;;;;;28.64;38.92;99127.91;5034827;28;20052;-74
2021/07/30 05:23:40;;;;;;;23.38;10.70;;;;;;;28.64;38.90;99134.16;5034620;28;20025;-82
2021/07/30 05:26:05;;;;;;;20.38;11.18;;;;;;;28.27;38.87;99083.66;5033222;28;20025;-82
2021/07/30 05:28:31;;;;;;;18.63;9.77;;;;;;;28.45;38.83;99109.88;5034601;28;20491;-82
2021/07/30 05:30:58;;;;;;;17.38;9.75;;;;;;;28.00;38.82;99034.81;5034659;28;20052;-81
2021/07/30 05:33:24;;;;;;;20.92;10.60;;;;;;;28.66;38.94;99147.44;5034463;28;20029;-83
2021/07/30 05:35:50;;;;;;;14.25;9.85;;;;;;;28.68;38.95;99164.22;5034497;28;20075;-82
2021/07/30 05:38:15;;;;;;;21.15;10.95;;;;;;;28.74;39.18;99144.78;5033281;28;20456;-80
2021/07/30 05:40:44;;;;;;;18.92;10.25;;;;;;;28.75;38.90;99145.59;5034625;28;20021;-79
2021/07/30 05:43:10;;;;;;;27.83;11.13;;;;;;;28.41;38.99;99080.91;5034177;28;20103;-83
2021/07/30 05:45:35;;;;;;;24.52;10.68;;;;;;;28.52;38.66;99101.28;5034330;28;20486;-81
2021/07/30 05:48:01;;;;;;;21.10;11.77;;;;;;;28.92;38.91;99164.78;5034342;28;20067;-82
2021/07/30 05:50:26;;;;;;;21.00;11.93;;;;;;;28.65;38.90;99113.22;5033760;28;20047;-82
2021/07/30 05:52:52;;;;;;;25.23;10.93;;;;;;;28.77;38.28;99116.19;5034185;28;20025;-81
2021/07/30 05:55:18;;;;;;;27.15;11.25;;;;;;;28.82;37.99;99116.06;5032762;28;20394;-80
2021/07/30 05:57:44;;;;;;;18.75;9.85;;;;;;;28.83;37.90;99112.25;5032784;28;20413;-83
2021/07/30 06:00:10;;;;;;;21.30;11.02;;;;;;;28.59;37.77;99062.84;5034048;28;20025;-81
2021/07/30 06:02:35;;;;;;;20.08;9.80;;;;;;;28.92;37.51;99110.41;5033902;28;20634;-80
2021/07/30 06:05:01;;;;;;;19.98;11.25;;;;;;;29.28;37.48;99144.91;5033906;28;20029;-80
2021/07/30 06:07:26;;;;;;;22.35;11.07;;;;;;;29.43;37.47;99152.69;5033837;28;20033;-81
2021/07/30 06:09:52;;;;;;;23.38;11.38;;;;;;;29.24;37.44;99124.88;5033974;28;20108;-82
2021/07/30 06:12:17;;;;;;;19.15;10.95;;;;;;;29.38;37.38;99125.59;5034124;28;20056;-82
2021/07/30 06:14:46;;;;;;;34.05;11.50;;;;;;;29.53;37.74;99151.63;5034027;28;20040;-82
2021/07/30 06:17:12;;;;;;;21.50;10.65;;;;;;;29.70;38.02;99152.50;5034028;28;20025;-81
2021/07/30 06:19:38;;;;;;;19.17;10.07;;;;;;;29.74;38.12;99150.00;5033750;28;20025;-83
2021/07/30 06:22:04;;;;;;;18.88;10.32;;;;;;;29.68;38.11;99134.88;5033839;28;20025;-83
2021/07/30 06:24:29;;;;;;;22.13;11.68;;;;;;;29.60;38.50;99120.13;5033982;28;20108;-81
2021/07/30 06:26:55;;;;;;;18.98;10.68;;;;;;;29.67;38.47;99112.31;5033686;28;20030;-81
2021/07/30 06:29:20;;;;;;;19.98;10.88;;;;;;;29.34;38.18;99051.19;5032449;28;20509;-81
2021/07/30 06:31:45;;;;;;;17.63;10.35;;;;;;;29.46;38.27;99059.59;5033596;28;20017;-82
2021/07/30 06:34:11;;;;;;;19.92;10.10;;;;;;;30.03;38.00;99146.75;5033623;28;20475;-83
2021/07/30 06:36:36;;;;;;;18.25;9.40;;;;;;;29.82;38.23;99099.44;5033478;28;20028;-81
2021/07/30 06:39:02;;;;;;;18.88;9.50;;;;;;;30.22;38.05;99146.47;5033513;28;20449;-80
2021/07/30 06:41:28;;;;;;;17.45;9.45;;;;;;;30.27;37.66;99149.84;5033605;28;20490;-80
2021/07/30 06:43:54;;;;;;;23.08;11.85;;;;;;;30.32;37.48;99155.16;5033282;28;20048;-82
2021/07/30 06:46:20;;;;;;;18.70;15.50;;;;;;;30.42;37.24;99147.78;5033349;28;20029;-82
2021/07/30 06:48:45;;;;;;;48.97;13.05;;;;;;;30.20;36.64;99102.41;5033376;28;20029;-82
2021/07/30 06:51:11;;;;;;;20.10;10.30;;;;;;;30.48;36.63;99154.72;5032376;28;20022;-83
2021/07/30 06:53:37;;;;;;;19.25;10.32;;;;;;;30.17;36.35;99084.78;5033231;28;20029;-82
2021/07/30 06:56:10;;;;;;;19.42;10.02;;;;;;;30.57;36.38;99139.97;5033668;28;20183;-82
2021/07/30 06:58:35;;;;;;;17.80;11.02;;;;;;;30.43;36.59;99108.53;5032925;28;20080;-82
2021/07/30 07:01:05;;;;;;;22.00;10.93;;;;;;;30.78;35.71;99142.91;5033044;28;20104;-82
2021/07/30 07:03:30;;;;;;;20.90;10.65;;;;;;;30.47;35.83;99083.09;5032622;28;20083;-83
2021/07/30 07:05:56;;;;;;;16.45;11.73;;;;;;;30.75;35.95;99113.56;5031736;28;20025;-83
2021/07/30 07:08:21;;;;;;;16.25;9.35;;;;;;;30.65;35.00;99092.09;5032809;28;20040;-82
2021/07/30 07:10:46;;;;;;;17.85;10.35;;;;;;;30.95;34.53;99134.72;5032672;28;20037;-82
2021/07/30 07:13:12;;;;;;;24.35;10.45;;;;;;;31.11;34.58;99156.03;5032440;28;20116;-80
2021/07/30 07:15:46;;;;;;;21.63;10.63;;;;;;;30.88;34.06;99109.06;5032641;28;20104;-82
2021/07/30 07:18:12;;;;;;;21.45;11.25;;;;;;;31.23;34.20;99150.75;5032934;28;20025;-81
2021/07/30 07:20:38;;;;;;;25.40;10.95;;;;;;;31.29;34.16;99155.72;5032687;28;20064;-81
2021/07/30 07:23:04;;;;;;;19.95;10.55;;;;;;;31.38;33.71;99160.34;5032599;28;20434;-76
2021/07/30 07:25:29;;;;;;;22.27;11.30;;;;;;;31.07;33.53;99097.81;5032214;28;20025;-74
2021/07/30 07:27:55;;;;;;;20.33;10.88;;;;;;;31.51;33.34;99153.91;5032317;28;20057;-76
2021/07/30 07:30:21;;;;;;;21.27;9.68;;;;;;;31.51;32.74;99142.97;5035815;28;20033;-76
2021/07/30 07:32:47;;;;;;;19.25;10.38;;;;;;;31.21;32.77;99090.25;5043868;28;20490;-75
2021/07/30 07:35:12;;;;;;;23.35;11.13;;;;;;;31.67;32.62;99154.97;5045320;28;20033;-74
2021/07/30 07:37:38;;;;;;;21.92;9.80;;;;;;;31.76;32.60;99144.84;5051420;28;20029;-75
2021/07/30 07:40:05;;;;;;;18.45;10.40;;;;;;;31.83;31.88;99145.13;5032037;28;20509;-75
2021/07/30 07:42:31;;;;;;;20.90;10.02;;;;;;;31.53;31.95;99088.88;5031824;28;20032;-74
2021/07/30 07:44:56;;;;;;;22.15;10.35;;;;;;;31.95;31.99;99147.16;5030573;28;20406;-75
2021/07/30 07:47:22;;;;;;;16.67;10.00;;;;;;;31.98;31.89;99143.00;5031761;28;20036;-75
2021/07/30 07:49:47;;;;;;;19.92;9.80;;;;;;;32.07;31.70;99147.28;5058659;28;20094;-75
2021/07/30 07:52:13;;;;;;;14.50;9.20;;;;;;;32.16;31.67;99142.56;5051329;28;20086;-74
2021/07/30 07:54:39;;;;;;;21.17;9.93;;;;;;;31.90;31.76;99084.53;5057971;28;20497;-73
2021/07/30 07:57:06;;;;;;;18.25;10.38;;;;;;;32.07;31.77;99091.88;5071462;28;20040;-73
2021/07/30 07:59:35;;;;;;;20.63;9.93;;;;;;;32.48;31.19;99134.84;5071332;28;20021;-73
2021/07/30 08:02:01;;;;;;;20.90;9.77;;;;;;;32.52;31.16;99133.84;5071427;28;20020;-76
2021/07/30 08:04:26;;;;;;;18.58;10.60;;;;;;;32.47;30.67;99120.38;5071428;28;20038;-74
2021/07/30 08:06:51;;;;;;;20.73;9.82;;;;;;;32.54;30.65;99115.16;5071240;28;20029;-75
2021/07/30 08:09:17;;;;;;;17.27;9.35;;;;;;;32.74;30.72;99132.72;5029442;28;20102;-75
2021/07/30 08:11:42;;;;;;;17.48;11.38;;;;;;;32.82;30.61;99131.06;5042028;28;20061;-74
2021/07/30 08:14:08;;;;;;;16.83;9.00;;;;;;;32.89;30.48;99134.06;5050308;28;20029;-74
2021/07/30 08:16:33;;;;;;;21.23;10.90;;;;;;;32.98;30.31;99131.25;5051010;28;20078;-76
2021/07/30 08:18:59;;;;;;;20.27;10.38;;;;;;;32.74;29.98;99072.56;5064196;28;20028;-74
2021/07/30 08:21:26;;;;;;;18.80;10.20;;;;;;;33.17;29.83;99126.06;5064202;28;20064;-74
2021/07/30 08:23:52;;;;;;;18.30;9.35;;;;;;;33.24;29.62;99115.38;5029695;28;20033;-74
2021/07/30 08:26:17;;;;;;;17.35;10.75;;;;;;;33.15;29.71;99096.31;5031105;28;20064;-77
2021/07/30 08:28:43;;;;;;;19.75;10.32;;;;;;;33.19;29.29;99096.44;5030840;28;20025;-74
2021/07/30 08:31:08;;;;;;;19.52;10.43;;;;;;;33.50;28.96;99128.03;5030934;28;20109;-75
2021/07/30 08:33:35;;;;;;;22.95;11.38;;;;;;;33.53;29.34;99122.66;5033687;28;20078;-75
2021/07/30 08:36:00;;;;;;;21.58;10.90;;;;;;;33.71;28.99;99117.78;5042420;28;20037;-76
2021/07/30 08:38:26;;;;;;;17.80;9.32;;;;;;;33.52;28.71;99084.69;5055851;28;20028;-73
2021/07/30 08:40:51;;;;;;;17.70;9.82;;;;;;;33.87;28.37;99115.19;5048991;28;20519;-74
2021/07/30 08:43:17;;;;;;;19.90;10.80;;;;;;;33.86;28.40;99097.94;5052567;28;20063;-73
2021/07/30 08:45:50;;;;;;;22.80;9.90;;;;;;;34.11;28.12;99113.22;5070796;28;20036;-73
2021/07/30 08:48:16;;;;;;;17.20;9.95;;;;;;;33.94;27.83;99058.69;5053657;28;20029;-74
2021/07/30 08:50:42;;;;;;;24.67;10.52;;;;;;;34.36;27.46;99094.84;5029476;28;20014;-74
2021/07/30 08:53:08;;;;;;;23.17;12.40;;;;;;;34.50;27.46;99097.19;5032161;28;20026;-74
2021/07/30 08:55:34;;;;;;;18.83;10.32;;;;;;;34.44;27.25;99070.38;5065119;28;20055;-76
2021/07/30 08:57:59;;;;;;;21.83;10.30;;;;;;;34.61;27.00;99067.34;5031006;28;20056;-76
2021/07/30 09:00:25;;;;;;;23.17;10.27;;;;;;;34.84;26.88;99078.56;5037962;28;20017;-75
2021/07/30 09:02:54;;;;;;;26.17;10.95;;;;;;;35.03;26.15;99081.47;5030800;28;20025;-74
2021/07/30 09:05:31;;;;;;;22.83;10.80;;;;;;;34.92;25.98;99050.19;5031022;28;20109;-74
2021/07/30 09:08:01;;;;;;;21.80;10.15;;;;;;;35.26;26.37;99074.22;5034147;28;20404;-73
2021/07/30 09:10:34;;;;;;;20.67;10.02;;;;;;;35.42;26.36;99079.75;5048589;28;20017;-75
2021/07/30 09:13:19;;;;;;;20.77;9.15;;;;;;;35.59;25.04;99073.09;5045209;28;20029;-77
2021/07/30 09:16:07;;;;;;;20.95;9.55;;;;;;;35.76;24.98;99071.97;5033845;28;20021;-74
2021/07/30 09:18:35;;;;;;;21.30;9.85;;;;;;;35.64;25.23;99037.94;5036655;28;20029;-74
2021/07/30 09:21:29;;;;;;;24.90;10.25;;;;;;;36.06;25.10;99059.31;5038651;28;20073;-76
2021/07/30 09:23:59;;;;;;;17.08;9.85;;;;;;;36.20;24.93;99047.84;5030367;28;20032;-75
2021/07/30 09:26:27;;;;;;;21.48;9.43;;;;;;;36.43;24.65;99057.03;5046274;28;20100;-75
2021/07/30 09:28:54;;;;;;;18.95;9.18;;;;;;;36.50;24.14;99045.38;5045831;28;20060;-75
2021/07/30 09:31:19;;;;;;;18.42;8.85;;;;;;;36.65;23.91;99061.00;5048464;28;20508;-75
2021/07/30 09:33:44;;;;;;;18.23;8.90;;;;;;;36.47;23.87;99015.84;5039011;28;20025;-77
2021/07/30 09:36:10;;;;;;;19.90;8.35;;;;;;;36.76;23.74;99040.00;5034560;28;20112;-76
2021/07/30 09:38:35;;;;;;;20.60;8.90;;;;;;;36.70;23.12;99015.88;5040922;28;20017;-76
2021/07/30 09:41:11;;;;;;;19.83;8.82;;;;;;;36.87;23.26;99009.94;5050900;28;20033;-76
2021/07/30 09:43:38;;;;;;;19.50;8.18;;;;;;;36.96;23.00;99005.00;5035767;28;20112;-77
2021/07/30 09:46:30;;;;;;;19.23;9.88;;;;;;;37.40;22.04;99034.88;5037957;28;20037;-77
2021/07/30 09:48:55;;;;;;;18.20;8.90;;;;;;;37.44;22.72;99032.97;5045528;28;20055;-77
2021/07/30 09:51:21;;;;;;;18.23;10.43;;;;;;;37.38;22.40;99001.41;5051747;28;20029;-77
2021/07/30 09:53:47;;;;;;;17.60;8.90;;;;;;;37.41;22.36;98982.19;5046447;28;20056;-76
2021/07/30 09:56:14;;;;;;;20.92;11.20;;;;;;;37.81;21.67;99019.38;5036825;28;20025;-76
2021/07/30 09:58:42;;;;;;;19.40;10.13;;;;;;;37.87;21.54;99033.63;5048609;28;20028;-78
2021/07/30 10:01:16;;;;;;;23.02;10.30;;;;;;;38.00;21.43;99016.53;5043005;28;20010;-77
2021/07/30 10:03:43;;;;;;;23.65;8.43;;;;;;;38.08;21.19;99001.66;5033533;28;20025;-76
2021/07/30 10:06:10;;;;;;;22.20;10.25;;;;;;;38.33;21.18;99012.22;5037676;28;20528;-78
2021/07/30 10:08:35;;;;;;;20.20;9.50;;;;;;;38.45;21.25;99011.97;5032824;28;20079;-76
2021/07/30 10:11:01;;;;;;;18.35;8.90;;;;;;;38.02;20.97;98903.13;5036502;28;20465;-77
2021/07/30 10:13:36;;;;;;;19.33;9.10;;;;;;;38.53;20.84;98965.94;5053085;28;20611;-77
2021/07/30 10:16:03;;;;;;;21.65;9.05;;;;;;;38.90;20.53;99004.59;5045929;28;20036;-77
2021/07/30 10:18:29;;;;;;;20.33;10.07;;;;;;;39.04;20.75;99002.78;5033478;28;20017;-77
2021/07/30 10:21:01;;;;;;;21.55;10.10;;;;;;;38.89;20.47;98962.41;5033683;28;20036;-76
2021/07/30 10:23:27;;;;;;;22.13;11.02;;;;;;;39.33;20.76;98997.50;5033768;28;20160;-79
2021/07/30 10:25:55;;;;;;;14.05;8.35;;;;;;;39.48;20.99;98988.16;5047561;28;20497;-79
2021/07/30 10:28:22;;;;;;;17.00;8.65;;;;;;;39.44;20.36;98961.69;5044659;28;20399;-77
2021/07/30 10:31:09;;;;;;;19.02;8.48;;;;;;;39.76;20.69;98989.53;5036194;28;20020;-79
2021/07/30 10:33:34;;;;;;;17.00;8.73;;;;;;;39.87;20.01;98985.66;5032042;28;20516;-78
2021/07/30 10:36:07;;;;;;;19.25;9.15;;;;;;;39.97;20.39;98982.16;5032687;28;20029;-78
2021/07/30 10:38:34;;;;;;;17.90;9.23;;;;;;;39.93;20.42;98955.69;5047177;28;20460;-79
2021/07/30 10:41:09;;;;;;;17.83;8.73;;;;;;;40.27;19.90;98970.06;5042048;28;20025;-79
2021/07/30 10:43:49;;;;;;;19.92;9.63;;;;;;;40.46;19.38;98974.47;5033068;28;20040;-79
2021/07/30 10:46:16;;;;;;;20.58;9.88;;;;;;;40.50;19.02;98969.75;5034026;28;20111;-79
2021/07/30 10:48:42;;;;;;;21.33;10.25;;;;;;;40.24;19.12;98930.13;5036351;28;20032;-78
2021/07/30 10:51:23;;;;;;;18.52;8.95;;;;;;;40.54;19.22;98962.25;5052813;28;20025;-78
2021/07/30 10:53:52;;;;;;;22.02;11.02;;;;;;;40.61;19.16;98951.97;5050673;28;20096;-78
2021/07/30 10:56:18;;;;;;;20.13;9.25;;;;;;;40.72;19.33;98940.91;5052670;28;20036;-78
2021/07/30 10:58:43;;;;;;;29.98;10.27;;;;;;;40.84;19.28;98950.84;5046207;28;20017;-79
2021/07/30 11:01:13;;;;;;;21.75;9.98;;;;;;;40.71;18.86;98914.41;5054025;28;20039;-79
2021/07/30 11:03:51;;;;;;;;;;;;;;;40.98;18.30;98925.94;5053937;28;20057;-78
2021/07/30 11:06:22;;;;;;;20.08;10.20;;;;;;;41.10;18.80;98922.75;5060133;28;20346;-78
2021/07/30 11:09:00;;;;;;;19.05;9.55;;;;;;;41.14;18.28;98920.78;5072493;28;20086;-79
2021/07/30 11:11:51;;;;;;;18.17;10.80;;;;;;;41.12;18.21;98891.91;5060278;28;20026;-78
2021/07/30 11:14:28;;;;;;;23.08;9.57;;;;;;;41.46;18.02;98917.16;5035743;28;20529;-78
2021/07/30 11:16:57;;;;;;;21.92;9.55;;;;;;;41.54;17.98;98911.22;5033626;28;20454;-78
2021/07/30 11:19:24;;;;;;;18.30;9.75;;;;;;;41.52;18.01;98902.50;5034545;28;20082;-80
2021/07/30 11:21:51;;;;;;;30.20;17.38;;;;;;;41.64;17.66;98895.78;5031976;28;20033;-78
2021/07/30 11:24:17;;;;;;;16.45;11.23;;;;;;;41.74;18.28;98910.78;5031912;28;20029;-80